Time;durP1;ratioP1;P1;durP2;ratioP2;P2;SDS_P1;SDS_P2;PMS_P1;PMS_P2;Temp;Humidity;BMP_temperature;BMP_pressure;BME280_temperature;BME280_humidity;BME280_pressure;Samples;Min_cycle;Max_cycle;Signal;HPM_P1;HPM_P2
2022/10/05 00:01:51;;;;;;;;;23.25;23.25;;;;;;;;5079351;28;45346;-79
2022/10/05 00:04:17;;;;;;;;;19.25;19.25;;;;;;;;5080569;28;45327;-80
2022/10/05 00:07:02;;;;;;;;;15.50;15.50;;;;;;;;5080709;28;45344;-81
2022/10/05 00:09:30;;;;;;;;;23.25;23.25;;;;;;;;5049662;28;45487;-77
2022/10/05 00:11:55;;;;;;;;;24.25;24.25;;;;;;;;5062125;28;47211;-80
2022/10/05 00:14:22;;;;;;;;;21.25;21.25;;;;;;;;5081212;28;45340;-80
2022/10/05 00:16:48;;;;;;;;;22.75;22.75;;;;;;;;5080769;28;45342;-80
2022/10/05 00:19:27;;;;;;;;;20.00;20.00;;;;;;;;5076952;28;45565;-80
2022/10/05 00:21:55;;;;;;;;;18.25;18.25;;;;;;;;5076649;28;45579;-79
2022/10/05 00:24:22;;;;;;;;;18.50;18.50;;;;;;;;5075966;28;45244;-78
2022/10/05 00:26:49;;;;;;;;;20.75;20.75;;;;;;;;5075988;28;45363;-79
2022/10/05 00:29:20;;;;;;;;;18.75;18.75;;;;;;;;5076336;28;45516;-80
2022/10/05 00:31:45;;;;;;;;;20.25;20.25;;;;;;;;5057744;28;48061;-79
2022/10/05 00:34:11;;;;;;;;;40.25;36.25;;;;;;;;5076024;28;45229;-78
2022/10/05 00:36:36;;;;;;;;;20.75;20.75;;;;;;;;5058166;28;45284;-79
2022/10/05 00:39:02;;;;;;;;;19.00;19.00;;;;;;;;5076281;28;45288;-80
2022/10/05 00:41:30;;;;;;;;;19.25;19.25;;;;;;;;5057352;28;47532;-79
2022/10/05 00:43:55;;;;;;;;;21.75;21.75;;;;;;;;5076239;28;45563;-80
2022/10/05 00:46:44;;;;;;;;;19.25;19.25;;;;;;;;5076042;28;45252;-81
2022/10/05 00:49:27;;;;;;;;;19.50;19.50;;;;;;;;5047040;28;45322;-78
2022/10/05 00:52:01;;;;;;;;;16.50;16.25;;;;;;;;5075392;28;46371;-79
2022/10/05 00:54:32;;;;;;;;;16.75;16.75;;;;;;;;5076157;28;45374;-78
2022/10/05 00:57:15;;;;;;;;;20.25;20.25;;;;;;;;5076175;28;45404;-79
2022/10/05 00:59:48;;;;;;;;;19.25;19.25;;;;;;;;5076563;28;45938;-78
2022/10/05 01:02:35;;;;;;;;;19.00;19.00;;;;;;;;5077980;28;46391;-79
2022/10/05 01:05:00;;;;;;;;;18.25;18.25;;;;;;;;5077796;28;45319;-78
2022/10/05 01:07:28;;;;;;;;;18.00;18.00;;;;;;;;5078728;28;45234;-79
2022/10/05 01:10:00;;;;;;;;;17.25;16.50;;;;;;;;5058506;28;45471;-79
2022/10/05 01:12:37;;;;;;;;;19.00;19.00;;;;;;;;5078664;28;46417;-78
2022/10/05 01:15:08;;;;;;;;;12.75;12.75;;;;;;;;5060363;28;45311;-80
2022/10/05 01:17:40;;;;;;;;;15.50;15.50;;;;;;;;5079497;28;45146;-78
2022/10/05 01:20:18;;;;;;;;;16.50;16.50;;;;;;;;5080593;28;45338;-78
2022/10/05 01:22:57;;;;;;;;;16.75;16.75;;;;;;;;5082316;27;45468;-78
2022/10/05 01:25:47;;;;;;;;;18.50;17.75;;;;;;;;5085041;28;45329;-78
2022/10/05 01:28:23;;;;;;;;;15.00;15.00;;;;;;;;5064753;28;45346;-79
2022/10/05 01:30:56;;;;;;;;;12.25;12.25;;;;;;;;5085468;28;45398;-79
2022/10/05 01:33:28;;;;;;;;;17.75;16.75;;;;;;;;5086435;28;46187;-79
2022/10/05 01:36:16;;;;;;;;;13.50;13.50;;;;;;;;5086434;28;45301;-79
2022/10/05 01:39:00;;;;;;;;;13.50;13.50;;;;;;;;5067252;28;45484;-79
2022/10/05 01:41:37;;;;;;;;;12.00;11.75;;;;;;;;5086892;28;45413;-79
2022/10/05 01:44:09;;;;;;;;;16.75;16.75;;;;;;;;5084979;27;45467;-79
2022/10/05 01:46:49;;;;;;;;;10.50;10.25;;;;;;;;5083796;28;45319;-77
2022/10/05 01:49:17;;;;;;;;;10.25;10.25;;;;;;;;5082837;28;45212;-80
2022/10/05 01:52:01;;;;;;;;;9.25;9.25;;;;;;;;5083621;28;45589;-80
2022/10/05 01:54:38;;;;;;;;;12.00;12.00;;;;;;;;5080248;28;45283;-77
2022/10/05 01:57:03;;;;;;;;;10.00;10.00;;;;;;;;5079307;28;45351;-80
2022/10/05 01:59:32;;;;;;;;;12.00;12.00;;;;;;;;5079587;28;45319;-78
2022/10/05 02:02:02;;;;;;;;;10.75;10.75;;;;;;;;5078974;28;45585;-79
2022/10/05 02:04:40;;;;;;;;;21.25;21.00;;;;;;;;5060622;28;46337;-76
2022/10/05 02:07:09;;;;;;;;;12.50;12.50;;;;;;;;5078702;28;45369;-78
2022/10/05 02:09:42;;;;;;;;;11.75;11.75;;;;;;;;5078672;28;45296;-79
2022/10/05 02:12:12;;;;;;;;;7.75;7.75;;;;;;;;5060178;28;45439;-78
2022/10/05 02:14:40;;;;;;;;;11.50;11.50;;;;;;;;5059065;28;46290;-77
2022/10/05 02:17:11;;;;;;;;;9.75;9.75;;;;;;;;5077435;28;45401;-78
2022/10/05 02:19:57;;;;;;;;;9.75;9.75;;;;;;;;5077878;28;45249;-79
2022/10/05 02:22:25;;;;;;;;;9.75;9.75;;;;;;;;5077212;28;45458;-76
2022/10/05 02:24:54;;;;;;;;;8.75;8.75;;;;;;;;5058944;28;47064;-78
2022/10/05 02:27:30;;;;;;;;;12.50;12.50;;;;;;;;5077764;28;45319;-79
2022/10/05 02:29:58;;;;;;;;;11.00;11.00;;;;;;;;5079719;28;45423;-80
2022/10/05 02:32:26;;;;;;;;;10.00;10.00;;;;;;;;5081068;28;45282;-80
2022/10/05 02:34:51;;;;;;;;;9.50;9.50;;;;;;;;5083126;28;46280;-79
2022/10/05 02:37:35;;;;;;;;;10.50;10.50;;;;;;;;5081917;28;45371;-78
2022/10/05 02:40:26;;;;;;;;;9.00;9.00;;;;;;;;5086398;28;45299;-77
2022/10/05 02:42:55;;;;;;;;;10.00;10.00;;;;;;;;5061122;28;45558;-76
2022/10/05 02:45:26;;;;;;;;;10.00;10.00;;;;;;;;5078786;28;46859;-77
2022/10/05 02:47:56;;;;;;;;;8.25;8.25;;;;;;;;5078699;28;45391;-77
2022/10/05 02:50:28;;;;;;;;;9.00;9.00;;;;;;;;5078791;28;45379;-78
2022/10/05 02:53:19;;;;;;;;;8.00;8.00;;;;;;;;5078247;27;45340;-77
2022/10/05 02:55:57;;;;;;;;;9.50;9.50;;;;;;;;5078125;28;46349;-77
2022/10/05 02:58:23;;;;;;;;;9.50;9.50;;;;;;;;5079375;28;45273;-79
2022/10/05 03:00:59;;;;;;;;;10.50;10.50;;;;;;;;5060208;28;45466;-80
2022/10/05 03:03:31;;;;;;;;;9.00;9.00;;;;;;;;5081718;28;45477;-79
2022/10/05 03:06:02;;;;;;;;;10.00;10.00;;;;;;;;5082219;28;46512;-78
2022/10/05 03:08:40;;;;;;;;;9.00;9.00;;;;;;;;5062605;28;45427;-78
2022/10/05 03:11:08;;;;;;;;;11.75;11.75;;;;;;;;5080233;28;45307;-78
2022/10/05 03:13:33;;;;;;;;;8.00;8.00;;;;;;;;5079483;28;45439;-77
2022/10/05 03:16:02;;;;;;;;;10.00;10.00;;;;;;;;5078949;28;46432;-77
2022/10/05 03:18:37;;;;;;;;;8.75;8.75;;;;;;;;5077445;28;45873;-79
2022/10/05 03:21:02;;;;;;;;;8.50;8.50;;;;;;;;5061953;28;45345;-80
2022/10/05 03:23:28;;;;;;;;;10.00;10.00;;;;;;;;5066627;28;45270;-80
2022/10/05 03:25:53;;;;;;;;;9.00;9.00;;;;;;;;5062168;28;46102;-77
2022/10/05 03:28:18;;;;;;;;;12.00;12.00;;;;;;;;5077119;28;45279;-79
2022/10/05 03:30:51;;;;;;;;;10.00;10.00;;;;;;;;5076679;28;45521;-78
2022/10/05 03:33:35;;;;;;;;;10.25;10.25;;;;;;;;5076021;28;45305;-77
2022/10/05 03:36:32;;;;;;;;;12.25;12.25;;;;;;;;5076741;28;45349;-77
2022/10/05 03:38:58;;;;;;;;;12.00;12.00;;;;;;;;5041417;28;45378;-78
2022/10/05 03:41:26;;;;;;;;;14.00;14.00;;;;;;;;5077046;28;45463;-77
2022/10/05 03:44:08;;;;;;;;;10.50;10.50;;;;;;;;5076705;28;45584;-78
2022/10/05 03:46:36;;;;;;;;;13.00;13.00;;;;;;;;5058161;28;47170;-80
2022/10/05 03:49:10;;;;;;;;;12.50;12.00;;;;;;;;5075836;28;45495;-80
2022/10/05 03:51:38;;;;;;;;;11.00;11.00;;;;;;;;5077327;27;45216;-78
2022/10/05 03:54:25;;;;;;;;;11.50;11.50;;;;;;;;5078036;28;45359;-80
2022/10/05 03:56:56;;;;;;;;;11.50;11.50;;;;;;;;5076260;28;46356;-77
2022/10/05 03:59:28;;;;;;;;;12.50;12.25;;;;;;;;5076426;28;45480;-79
2022/10/05 04:01:55;;;;;;;;;12.50;12.50;;;;;;;;5076339;28;45381;-78
2022/10/05 04:04:41;;;;;;;;;10.00;10.00;;;;;;;;5075796;28;45228;-77
2022/10/05 04:07:25;;;;;;;;;12.50;12.25;;;;;;;;5057391;28;47242;-79
2022/10/05 04:09:51;;;;;;;;;10.50;10.50;;;;;;;;5058042;28;45349;-78
2022/10/05 04:12:25;;;;;;;;;12.00;12.00;;;;;;;;5083229;28;45295;-79
2022/10/05 04:14:56;;;;;;;;;9.25;9.25;;;;;;;;5078176;28;45258;-79
2022/10/05 04:17:29;;;;;;;;;12.75;12.75;;;;;;;;5077534;28;45718;-78
2022/10/05 04:20:17;;;;;;;;;12.25;12.25;;;;;;;;5077730;28;45376;-79
2022/10/05 04:22:46;;;;;;;;;11.50;11.50;;;;;;;;5068551;27;45426;-80
2022/10/05 04:25:16;;;;;;;;;11.00;11.00;;;;;;;;5058294;28;45439;-77
2022/10/05 04:27:49;;;;;;;;;12.00;12.00;;;;;;;;5077703;28;45509;-80
2022/10/05 04:30:18;;;;;;;;;10.75;10.75;;;;;;;;5077901;28;45461;-80
2022/10/05 04:32:50;;;;;;;;;10.25;9.50;;;;;;;;5081586;28;45265;-79
2022/10/05 04:35:37;;;;;;;;;11.00;11.00;;;;;;;;5086613;28;45414;-80
2022/10/05 04:38:21;;;;;;;;;9.50;9.50;;;;;;;;5079877;28;45723;-78
2022/10/05 04:40:54;;;;;;;;;14.75;13.00;;;;;;;;5079616;28;45359;-79
2022/10/05 04:43:22;;;;;;;;;12.50;12.50;;;;;;;;5076442;28;45354;-78
2022/10/05 04:46:13;;;;;;;;;12.50;12.50;;;;;;;;5059784;28;45373;-78
2022/10/05 04:48:56;;;;;;;;;9.00;9.00;;;;;;;;5079900;28;45469;-81
2022/10/05 04:51:27;;;;;;;;;12.00;12.00;;;;;;;;5080356;28;45209;-78
2022/10/05 04:53:55;;;;;;;;;10.00;10.00;;;;;;;;5081304;28;45256;-78
2022/10/05 04:56:29;;;;;;;;;10.50;10.50;;;;;;;;5082174;28;45552;-80
2022/10/05 04:58:57;;;;;;;;;11.50;11.50;;;;;;;;5082114;28;45603;-79
2022/10/05 05:01:22;;;;;;;;;10.75;10.75;;;;;;;;5081101;28;45307;-79
2022/10/05 05:03:56;;;;;;;;;10.75;10.75;;;;;;;;5082313;28;45265;-79
2022/10/05 05:06:33;;;;;;;;;12.75;12.75;;;;;;;;5081131;28;45221;-78
2022/10/05 05:09:17;;;;;;;;;11.00;11.00;;;;;;;;5081987;27;45471;-80
2022/10/05 05:11:48;;;;;;;;;9.00;9.00;;;;;;;;5080111;27;45166;-78
2022/10/05 05:14:14;;;;;;;;;10.50;10.50;;;;;;;;5078908;28;45376;-77
2022/10/05 05:16:40;;;;;;;;;12.00;12.00;;;;;;;;5061088;28;45442;-78
2022/10/05 05:19:29;;;;;;;;;12.25;12.25;;;;;;;;5078512;28;45414;-78
2022/10/05 05:22:00;;;;;;;;;13.50;13.50;;;;;;;;5078496;28;45344;-77
2022/10/05 05:24:31;;;;;;;;;11.75;11.75;;;;;;;;5078695;28;45425;-77
2022/10/05 05:27:03;;;;;;;;;12.25;12.25;;;;;;;;5078711;28;45359;-77
2022/10/05 05:29:40;;;;;;;;;13.00;13.00;;;;;;;;5078649;28;45448;-78
2022/10/05 05:32:16;;;;;;;;;12.25;12.25;;;;;;;;5078664;28;45409;-79
2022/10/05 05:34:41;;;;;;;;;10.00;10.00;;;;;;;;5079686;28;45437;-77
2022/10/05 05:37:09;;;;;;;;;13.00;12.25;;;;;;;;5079576;27;45319;-78
2022/10/05 05:39:37;;;;;;;;;13.50;13.50;;;;;;;;5078777;28;45461;-76
2022/10/05 05:42:02;;;;;;;;;15.75;15.75;;;;;;;;5059946;28;45199;-78
2022/10/05 05:44:40;;;;;;;;;12.25;12.25;;;;;;;;5060305;28;45353;-79
2022/10/05 05:47:20;;;;;;;;;10.25;10.25;;;;;;;;5060421;28;45367;-78
2022/10/05 05:49:53;;;;;;;;;14.25;14.25;;;;;;;;5078553;28;46397;-78
2022/10/05 05:52:29;;;;;;;;;12.25;12.25;;;;;;;;5078488;28;45303;-77
2022/10/05 05:55:00;;;;;;;;;18.50;17.50;;;;;;;;5060762;27;45309;-79
2022/10/05 05:57:45;;;;;;;;;18.50;18.50;;;;;;;;5079839;27;45946;-80
2022/10/05 06:00:20;;;;;;;;;11.50;11.50;;;;;;;;5079216;27;45409;-80
2022/10/05 06:02:45;;;;;;;;;14.50;14.50;;;;;;;;5080140;28;45429;-78
2022/10/05 06:05:27;;;;;;;;;13.50;13.50;;;;;;;;5078227;28;45347;-78
2022/10/05 06:07:53;;;;;;;;;13.50;13.50;;;;;;;;5078766;28;45527;-78
2022/10/05 06:10:45;;;;;;;;;13.00;13.00;;;;;;;;5078110;28;45425;-78
2022/10/05 06:13:15;;;;;;;;;13.50;13.50;;;;;;;;5075472;27;45277;-79
2022/10/05 06:15:43;;;;;;;;;16.25;16.25;;;;;;;;5078901;28;45425;-79
2022/10/05 06:18:14;;;;;;;;;14.50;14.50;;;;;;;;5060528;28;45296;-80
2022/10/05 06:20:42;;;;;;;;;15.75;15.75;;;;;;;;5077989;28;46153;-80
2022/10/05 06:23:15;;;;;;;;;14.50;14.50;;;;;;;;5080951;28;45560;-80
2022/10/05 06:25:56;;;;;;;;;19.25;17.25;;;;;;;;5065243;28;45322;-79
2022/10/05 06:28:23;;;;;;;;;17.50;17.50;;;;;;;;5084434;28;45645;-78
2022/10/05 06:30:48;;;;;;;;;18.00;18.00;;;;;;;;5083168;28;45224;-79
2022/10/05 06:33:18;;;;;;;;;29.25;29.25;;;;;;;;5081244;28;45283;-79
2022/10/05 06:35:48;;;;;;;;;26.00;26.00;;;;;;;;5080118;28;45312;-81
2022/10/05 06:38:16;;;;;;;;;24.25;24.25;;;;;;;;5080658;27;45572;-79
2022/10/05 06:40:44;;;;;;;;;28.75;27.50;;;;;;;;5084616;28;45612;-78
2022/10/05 06:43:16;;;;;;;;;20.50;20.50;;;;;;;;5088271;27;45225;-79
2022/10/05 06:45:44;;;;;;;;;25.00;25.00;;;;;;;;5092154;28;44808;-79
2022/10/05 06:48:24;;;;;;;;;22.75;22.75;;;;;;;;5088313;27;45228;-78
2022/10/05 06:50:55;;;;;;;;;24.00;23.75;;;;;;;;5078173;28;46291;-79
2022/10/05 06:53:23;;;;;;;;;23.25;23.25;;;;;;;;5079810;28;45262;-78
2022/10/05 06:56:07;;;;;;;;;26.75;26.75;;;;;;;;5080161;28;45400;-78
2022/10/05 06:58:41;;;;;;;;;22.50;22.50;;;;;;;;5078978;28;45215;-79
2022/10/05 07:01:10;;;;;;;;;22.75;22.75;;;;;;;;5078834;28;45355;-78
2022/10/05 07:03:38;;;;;;;;;28.00;28.00;;;;;;;;5059840;28;45288;-77
2022/10/05 07:06:09;;;;;;;;;22.50;22.50;;;;;;;;5077191;28;45334;-78
2022/10/05 07:08:37;;;;;;;;;27.50;27.50;;;;;;;;5076471;28;45414;-79
2022/10/05 07:11:17;;;;;;;;;24.25;24.25;;;;;;;;5058132;28;46301;-79
2022/10/05 07:13:51;;;;;;;;;24.25;24.25;;;;;;;;5076849;28;45345;-79
2022/10/05 07:16:35;;;;;;;;;26.00;25.50;;;;;;;;5077241;28;45204;-78
2022/10/05 07:19:06;;;;;;;;;26.75;26.75;;;;;;;;5077042;28;45367;-78
2022/10/05 07:21:43;;;;;;;;;26.50;26.50;;;;;;;;5077791;28;45479;-79
2022/10/05 07:24:28;;;;;;;;;29.00;29.00;;;;;;;;5076543;28;45332;-78
2022/10/05 07:27:09;;;;;;;;;26.75;26.75;;;;;;;;5076733;28;45436;-78
2022/10/05 07:29:38;;;;;;;;;26.00;25.50;;;;;;;;5076599;28;45403;-78
2022/10/05 07:32:09;;;;;;;;;24.75;24.75;;;;;;;;5076391;28;45441;-78
2022/10/05 07:34:53;;;;;;;;;24.75;24.75;;;;;;;;5076680;28;45412;-80
2022/10/05 07:40:16;;;;;;;;;21.50;21.50;;;;;;;;5077756;28;45261;-79
2022/10/05 07:42:47;;;;;;;;;22.75;22.75;;;;;;;;5076306;28;46308;-79
2022/10/05 07:45:30;;;;;;;;;23.50;23.50;;;;;;;;5076685;28;45333;-79
2022/10/05 07:47:58;;;;;;;;;22.00;22.00;;;;;;;;5077136;28;45200;-79
2022/10/05 07:50:23;;;;;;;;;24.25;24.00;;;;;;;;5076183;27;45196;-78
2022/10/05 07:53:01;;;;;;;;;21.75;21.75;;;;;;;;5076574;28;46250;-78
2022/10/05 07:55:33;;;;;;;;;24.25;24.25;;;;;;;;5075877;28;45407;-79
2022/10/05 07:58:24;;;;;;;;;22.25;22.25;;;;;;;;5075749;28;45512;-78
2022/10/05 08:01:01;;;;;;;;;16.75;16.75;;;;;;;;5076924;28;45282;-80
2022/10/05 08:03:26;;;;;;;;;19.50;19.50;;;;;;;;5077077;28;45738;-80
2022/10/05 08:05:52;;;;;;;;;20.25;20.25;;;;;;;;5078567;28;45382;-78
2022/10/05 08:08:23;;;;;;;;;20.00;19.50;;;;;;;;5059972;28;45598;-79
2022/10/05 08:11:15;;;;;;;;;19.00;18.50;;;;;;;;5082100;28;45113;-79
2022/10/05 08:13:49;;;;;;;;;16.50;16.50;;;;;;;;5057838;28;45430;-77
2022/10/05 08:16:15;;;;;;;;;35.50;32.50;;;;;;;;5088814;28;45351;-78
2022/10/05 08:18:59;;;;;;;;;16.50;16.50;;;;;;;;5083078;28;45314;-78
2022/10/05 08:21:36;;;;;;;;;14.00;14.00;;;;;;;;5081174;28;45485;-77
2022/10/05 08:24:13;;;;;;;;;12.75;12.75;;;;;;;;5079903;28;45498;-79
2022/10/05 08:26:58;;;;;;;;;13.00;13.00;;;;;;;;5081338;28;45379;-78
2022/10/05 08:29:44;;;;;;;;;15.00;15.00;;;;;;;;5082395;28;45440;-77
2022/10/05 08:32:23;;;;;;;;;16.00;16.00;;;;;;;;5072385;28;45468;-77
2022/10/05 08:34:52;;;;;;;;;15.00;15.00;;;;;;;;5081343;28;46568;-79
2022/10/05 08:37:17;;;;;;;;;12.25;12.25;;;;;;;;5081849;27;45395;-78
2022/10/05 08:39:48;;;;;;;;;12.25;12.25;;;;;;;;5081312;28;45380;-81
2022/10/05 08:42:32;;;;;;;;;12.00;12.00;;;;;;;;5082014;28;45405;-79
2022/10/05 08:45:00;;;;;;;;;12.25;12.25;;;;;;;;5080895;28;45342;-80
2022/10/05 08:47:44;;;;;;;;;9.00;9.00;;;;;;;;5081273;28;45299;-81
2022/10/05 08:50:18;;;;;;;;;10.00;10.00;;;;;;;;5081359;28;45413;-81
2022/10/05 08:52:44;;;;;;;;;10.25;10.25;;;;;;;;5081910;28;45366;-82
2022/10/05 08:55:09;;;;;;;;;9.00;9.00;;;;;;;;5080434;28;45338;-82
2022/10/05 08:57:34;;;;;;;;;7.75;7.75;;;;;;;;5081610;28;45430;-83
2022/10/05 09:00:05;;;;;;;;;7.75;7.75;;;;;;;;5086797;28;45282;-80
2022/10/05 09:02:30;;;;;;;;;8.25;8.25;;;;;;;;5088864;28;45410;-80
2022/10/05 09:05:07;;;;;;;;;10.00;10.00;;;;;;;;5067306;28;47558;-78
2022/10/05 09:07:39;;;;;;;;;9.25;9.25;;;;;;;;5085434;28;45316;-78
2022/10/05 09:10:04;;;;;;;;;10.00;10.00;;;;;;;;5089491;28;45271;-80
2022/10/05 09:12:37;;;;;;;;;10.75;10.75;;;;;;;;5088330;28;45469;-81
2022/10/05 09:15:15;;;;;;;;;14.75;14.75;;;;;;;;5079518;28;45523;-77
2022/10/05 09:18:07;;;;;;;;;10.50;10.50;;;;;;;;5083717;28;45446;-77
2022/10/05 09:20:36;;;;;;;;;9.00;9.00;;;;;;;;5082096;28;45382;-77
2022/10/05 09:23:10;;;;;;;;;10.00;10.00;;;;;;;;5080474;28;45312;-77
2022/10/05 09:25:53;;;;;;;;;8.00;8.00;;;;;;;;5079690;28;46594;-78
2022/10/05 09:28:33;;;;;;;;;9.25;9.25;;;;;;;;5079992;28;45333;-80
2022/10/05 09:31:14;;;;;;;;;8.75;8.75;;;;;;;;5083804;28;45386;-78
2022/10/05 09:33:54;;;;;;;;;9.75;9.75;;;;;;;;5083552;28;45300;-80
2022/10/05 09:36:23;;;;;;;;;7.75;7.75;;;;;;;;5082614;28;46667;-78
2022/10/05 09:39:07;;;;;;;;;9.00;9.00;;;;;;;;5080779;28;45330;-81
2022/10/05 09:41:35;;;;;;;;;9.00;9.00;;;;;;;;5068017;28;44820;-82
2022/10/05 09:44:03;;;;;;;;;7.00;7.00;;;;;;;;5083407;28;45396;-80
2022/10/05 09:46:34;;;;;;;;;6.25;6.25;;;;;;;;5085576;28;45319;-79
2022/10/05 09:49:20;;;;;;;;;11.25;11.25;;;;;;;;5067901;28;45296;-76
2022/10/05 09:52:05;;;;;;;;;8.25;8.25;;;;;;;;5082578;28;45216;-77
2022/10/05 09:54:39;;;;;;;;;9.00;9.00;;;;;;;;5061947;28;45562;-79
2022/10/05 09:57:23;;;;;;;;;9.25;9.25;;;;;;;;5081101;28;45319;-79
2022/10/05 09:59:52;;;;;;;;;9.75;9.75;;;;;;;;5062109;28;45499;-80
2022/10/05 10:02:26;;;;;;;;;8.50;8.50;;;;;;;;5080397;28;45319;-79
2022/10/05 10:05:10;;;;;;;;;8.00;8.00;;;;;;;;5064084;28;45543;-78
2022/10/05 10:07:35;;;;;;;;;8.75;8.75;;;;;;;;5085240;28;46338;-79
2022/10/05 10:10:00;;;;;;;;;8.00;8.00;;;;;;;;5070427;28;45344;-79
2022/10/05 10:12:34;;;;;;;;;7.00;7.00;;;;;;;;5083558;28;45255;-78
2022/10/05 10:15:03;;;;;;;;;4.75;4.75;;;;;;;;5065803;28;45252;-78
2022/10/05 10:17:31;;;;;;;;;6.50;6.50;;;;;;;;5064477;28;47264;-78
2022/10/05 10:20:04;;;;;;;;;7.25;7.25;;;;;;;;5064180;28;45443;-80
2022/10/05 10:22:33;;;;;;;;;5.25;5.25;;;;;;;;5065529;27;45427;-77
2022/10/05 10:25:18;;;;;;;;;7.25;7.25;;;;;;;;5084020;28;45578;-78
2022/10/05 10:27:53;;;;;;;;;5.00;5.00;;;;;;;;5082992;28;46562;-80
2022/10/05 10:30:36;;;;;;;;;4.50;4.50;;;;;;;;5083476;28;45280;-77
2022/10/05 10:33:10;;;;;;;;;5.00;5.00;;;;;;;;5081509;28;45451;-78
2022/10/05 10:35:38;;;;;;;;;6.50;6.50;;;;;;;;5081368;28;45348;-79
2022/10/05 10:38:22;;;;;;;;;5.25;5.25;;;;;;;;5079561;27;46802;-80
2022/10/05 10:40:53;;;;;;;;;7.50;7.50;;;;;;;;5081296;28;45384;-78
2022/10/05 10:43:22;;;;;;;;;5.00;5.00;;;;;;;;5080909;28;45294;-78
2022/10/05 10:46:06;;;;;;;;;5.00;5.00;;;;;;;;5063466;28;45463;-79
2022/10/05 10:48:57;;;;;;;;;6.00;6.00;;;;;;;;5082208;28;45249;-79
2022/10/05 10:51:42;;;;;;;;;6.00;6.00;;;;;;;;5061766;28;46217;-79
2022/10/05 10:54:37;;;;;;;;;7.00;7.00;;;;;;;;5081610;28;45304;-77
2022/10/05 10:57:02;;;;;;;;;6.75;6.75;;;;;;;;5028061;28;45321;-81
2022/10/05 10:59:57;;;;;;;;;8.00;8.00;;;;;;;;5083687;28;46096;-79
2022/10/05 11:02:26;;;;;;;;;8.25;8.25;;;;;;;;5012890;28;45317;-79
2022/10/05 11:05:07;;;;;;;;;5.25;5.25;;;;;;;;5082764;28;45423;-79
2022/10/05 11:07:35;;;;;;;;;4.00;4.00;;;;;;;;5082764;28;45239;-79
2022/10/05 11:10:08;;;;;;;;;8.00;7.25;;;;;;;;5081400;28;46150;-79
2022/10/05 11:12:52;;;;;;;;;3.75;3.75;;;;;;;;5082689;28;45247;-79
2022/10/05 11:15:17;;;;;;;;;5.75;5.75;;;;;;;;5086234;28;45343;-82
2022/10/05 11:17:58;;;;;;;;;7.00;7.00;;;;;;;;5087104;28;45540;-77
2022/10/05 11:20:33;;;;;;;;;5.25;5.25;;;;;;;;5086537;28;45558;-81
2022/10/05 11:23:13;;;;;;;;;9.00;9.00;;;;;;;;5064889;28;45316;-80
2022/10/05 11:25:57;;;;;;;;;7.00;7.00;;;;;;;;5081541;28;45251;-79
2022/10/05 11:28:23;;;;;;;;;6.00;6.00;;;;;;;;5081650;28;44810;-81
2022/10/05 11:31:13;;;;;;;;;5.75;5.75;;;;;;;;5082096;28;46255;-78
2022/10/05 11:33:57;;;;;;;;;4.50;4.50;;;;;;;;5085326;28;45501;-78
2022/10/05 11:36:29;;;;;;;;;5.00;5.00;;;;;;;;5062220;28;45355;-79
2022/10/05 11:39:03;;;;;;;;;5.00;5.00;;;;;;;;5079029;28;45220;-76
2022/10/05 11:41:46;;;;;;;;;5.50;5.50;;;;;;;;5059664;28;47787;-78
2022/10/05 11:44:14;;;;;;;;;3.75;3.75;;;;;;;;5078238;27;45235;-77
2022/10/05 11:46:45;;;;;;;;;5.00;5.00;;;;;;;;5077431;28;45362;-77
2022/10/05 11:49:20;;;;;;;;;6.00;5.00;;;;;;;;5081117;28;45581;-79
2022/10/05 11:51:52;;;;;;;;;4.75;4.75;;;;;;;;5080399;27;46215;-79
2022/10/05 11:54:28;;;;;;;;;5.00;5.00;;;;;;;;5078740;28;45449;-80
2022/10/05 11:57:04;;;;;;;;;4.50;4.50;;;;;;;;5078914;28;45338;-79
2022/10/05 11:59:45;;;;;;;;;4.00;4.00;;;;;;;;5078899;28;45393;-80
2022/10/05 12:02:12;;;;;;;;;6.00;6.00;;;;;;;;5078869;28;45493;-79
2022/10/05 12:04:56;;;;;;;;;3.00;3.00;;;;;;;;5078558;28;46049;-78
2022/10/05 12:07:39;;;;;;;;;3.75;3.75;;;;;;;;5079309;28;45419;-78
2022/10/05 12:10:23;;;;;;;;;4.50;4.50;;;;;;;;5062546;28;45573;-78
2022/10/05 12:13:01;;;;;;;;;3.00;3.00;;;;;;;;5077712;27;46062;-79
2022/10/05 12:15:31;;;;;;;;;4.00;4.00;;;;;;;;5078197;28;45324;-80
2022/10/05 12:18:09;;;;;;;;;3.25;3.25;;;;;;;;5078030;27;45223;-78
2022/10/05 12:20:48;;;;;;;;;2.25;2.25;;;;;;;;5078649;28;45448;-78
2022/10/05 12:23:23;;;;;;;;;3.00;3.00;;;;;;;;5059676;28;47276;-76
2022/10/05 12:26:09;;;;;;;;;3.25;3.25;;;;;;;;5078779;28;45950;-77
2022/10/05 12:28:46;;;;;;;;;3.00;3.00;;;;;;;;5059727;28;45287;-77
2022/10/05 12:31:20;;;;;;;;;3.00;3.00;;;;;;;;5079467;27;45359;-77
2022/10/05 12:34:08;;;;;;;;;4.00;4.00;;;;;;;;5079915;27;45723;-78
2022/10/05 12:36:41;;;;;;;;;2.25;2.25;;;;;;;;5047316;28;45365;-78
2022/10/05 12:39:21;;;;;;;;;3.50;3.50;;;;;;;;5077737;28;45318;-80
2022/10/05 12:42:07;;;;;;;;;3.00;3.00;;;;;;;;5077222;28;45533;-78
2022/10/05 12:44:42;;;;;;;;;4.00;4.00;;;;;;;;5076690;27;45324;-78
2022/10/05 12:47:25;;;;;;;;;5.75;5.75;;;;;;;;5058103;28;45434;-77
2022/10/05 12:49:51;;;;;;;;;4.50;4.50;;;;;;;;5076530;28;45467;-77
2022/10/05 12:52:31;;;;;;;;;3.25;3.25;;;;;;;;5076703;28;45373;-79
2022/10/05 12:55:04;;;;;;;;;3.25;3.25;;;;;;;;5058394;28;47616;-78
2022/10/05 12:57:48;;;;;;;;;5.00;5.00;;;;;;;;5077744;28;45394;-80
2022/10/05 13:00:16;;;;;;;;;5.00;5.00;;;;;;;;5077346;28;45288;-79
2022/10/05 13:02:44;;;;;;;;;4.00;4.00;;;;;;;;5079135;28;45339;-79
2022/10/05 13:05:09;;;;;;;;;4.00;4.00;;;;;;;;5080176;28;46823;-77
2022/10/05 13:07:34;;;;;;;;;4.00;4.00;;;;;;;;5083392;28;45326;-77
2022/10/05 13:10:09;;;;;;;;;4.00;4.00;;;;;;;;5062816;28;45286;-80
2022/10/05 13:13:09;;;;;;;;;8.25;7.00;;;;;;;;5081301;28;45244;-78
2022/10/05 13:15:37;;;;;;;;;4.25;4.25;;;;;;;;5019171;28;45305;-79
2022/10/05 13:18:21;;;;;;;;;5.25;5.25;;;;;;;;5050915;28;45351;-78
2022/10/05 13:21:07;;;;;;;;;6.00;6.00;;;;;;;;5081989;28;45340;-78
2022/10/05 13:23:33;;;;;;;;;4.75;4.75;;;;;;;;5052135;28;45451;-78
2022/10/05 13:26:09;;;;;;;;;4.00;4.00;;;;;;;;5086001;28;45660;-78
2022/10/05 13:28:43;;;;;;;;;4.25;4.25;;;;;;;;5065994;28;45390;-78
2022/10/05 13:31:14;;;;;;;;;5.25;5.25;;;;;;;;5085260;28;45325;-77
2022/10/05 13:33:58;;;;;;;;;6.00;6.00;;;;;;;;5085323;28;45165;-78
2022/10/05 13:36:26;;;;;;;;;7.00;7.00;;;;;;;;5081826;28;46497;-80
2022/10/05 13:38:58;;;;;;;;;4.50;4.50;;;;;;;;5079713;28;45335;-77
2022/10/05 13:41:23;;;;;;;;;7.50;7.50;;;;;;;;5080378;28;45427;-77
2022/10/05 13:43:58;;;;;;;;;7.75;7.75;;;;;;;;5081373;28;45522;-78
2022/10/05 13:46:41;;;;;;;;;2.50;2.50;;;;;;;;5079939;28;46098;-78
2022/10/05 13:49:27;;;;;;;;;4.25;4.25;;;;;;;;5080347;28;45360;-80
2022/10/05 13:51:53;;;;;;;;;6.75;6.00;;;;;;;;5084848;28;46178;-77
2022/10/05 13:54:41;;;;;;;;;6.00;4.25;;;;;;;;5083857;28;45271;-78
2022/10/05 13:57:13;;;;;;;;;6.25;6.25;;;;;;;;5082610;28;46666;-81
2022/10/05 13:59:47;;;;;;;;;4.00;4.00;;;;;;;;5080103;28;45337;-80
2022/10/05 14:02:38;;;;;;;;;13.75;13.75;;;;;;;;5060960;28;45442;-78
2022/10/05 14:05:13;;;;;;;;;4.50;4.50;;;;;;;;5057012;28;45213;-77
2022/10/05 14:07:50;;;;;;;;;6.00;6.00;;;;;;;;5078417;27;46030;-78
2022/10/05 14:10:30;;;;;;;;;5.00;5.00;;;;;;;;5078237;28;45476;-77
2022/10/05 14:12:55;;;;;;;;;6.00;6.00;;;;;;;;5079442;28;45206;-78
2022/10/05 14:15:22;;;;;;;;;5.75;5.75;;;;;;;;5078705;28;45570;-77
2022/10/05 14:17:50;;;;;;;;;5.00;5.00;;;;;;;;5080901;28;45712;-79
2022/10/05 14:20:21;;;;;;;;;6.00;6.00;;;;;;;;5082675;28;45371;-77
2022/10/05 14:22:51;;;;;;;;;5.00;5.00;;;;;;;;5084621;27;45186;-81
2022/10/05 14:25:18;;;;;;;;;5.50;5.50;;;;;;;;5084455;28;45473;-79
2022/10/05 14:27:59;;;;;;;;;3.25;3.25;;;;;;;;5092475;28;45476;-78
2022/10/05 14:30:25;;;;;;;;;7.50;7.50;;;;;;;;5085125;28;45383;-79
2022/10/05 14:33:02;;;;;;;;;6.00;6.00;;;;;;;;5080113;28;45442;-78
2022/10/05 14:35:47;;;;;;;;;4.50;4.00;;;;;;;;5083528;28;45402;-83
2022/10/05 14:38:17;;;;;;;;;5.00;5.00;;;;;;;;5079870;28;45413;-81
2022/10/05 14:40:42;;;;;;;;;7.00;7.00;;;;;;;;5060538;28;45251;-80
2022/10/05 14:43:14;;;;;;;;;6.00;6.00;;;;;;;;5078712;28;45184;-79
2022/10/05 14:45:55;;;;;;;;;6.00;6.00;;;;;;;;5080106;28;45571;-81
2022/10/05 14:48:21;;;;;;;;;7.00;7.00;;;;;;;;5079502;28;45789;-78
2022/10/05 14:50:58;;;;;;;;;5.50;5.50;;;;;;;;5080072;28;45414;-80
2022/10/05 14:53:24;;;;;;;;;10.25;10.25;;;;;;;;5079409;28;45435;-78
2022/10/05 14:55:55;;;;;;;;;6.00;6.00;;;;;;;;5080245;28;45526;-80
2022/10/05 14:58:26;;;;;;;;;6.00;6.00;;;;;;;;5065805;28;46968;-78
2022/10/05 15:00:57;;;;;;;;;5.75;5.75;;;;;;;;5095128;28;44779;-83
2022/10/05 15:03:34;;;;;;;;;7.00;7.00;;;;;;;;5089788;28;45466;-79
2022/10/05 15:06:01;;;;;;;;;6.00;6.00;;;;;;;;5080717;28;45449;-80
2022/10/05 15:08:44;;;;;;;;;7.00;7.00;;;;;;;;5080254;28;46246;-81
2022/10/05 15:11:22;;;;;;;;;6.75;6.75;;;;;;;;5061771;28;45354;-81
2022/10/05 15:13:48;;;;;;;;;6.00;6.00;;;;;;;;5082833;28;45178;-80